createdAt,value
2023-03-24T00:00:53.043Z,43.97
2023-03-24T00:03:59.227Z,46.20
2023-03-24T00:07:04.625Z,44.90
2023-03-24T00:10:09.874Z,44.97
2023-03-24T00:13:17.294Z,44.20
2023-03-24T00:16:22.229Z,44.23
2023-03-24T00:19:27.332Z,43.27
2023-03-24T00:22:32.612Z,45.07
2023-03-24T00:25:40.157Z,44.57
2023-03-24T00:28:45.581Z,43.13
2023-03-24T00:31:52.680Z,43.13
2023-03-24T00:34:58.627Z,45.63
2023-03-24T00:38:03.957Z,47.67
2023-03-24T00:41:10.632Z,45.40
2023-03-24T00:44:18.011Z,47.87
2023-03-24T00:47:26.140Z,45.87
2023-03-24T00:50:33.550Z,43.93
2023-03-24T00:53:43.567Z,44.33
2023-03-24T00:59:23.530Z,46.23
2023-03-24T01:02:28.897Z,46.63
2023-03-24T01:05:34.122Z,46.03
2023-03-24T01:08:39.336Z,48.77
2023-03-24T01:11:44.656Z,48.20
2023-03-24T01:14:50.167Z,49.77
2023-03-24T01:17:55.694Z,51.83
2023-03-24T01:21:01.273Z,49.27
2023-03-24T01:24:06.464Z,46.37
2023-03-24T01:27:11.468Z,46.53
2023-03-24T01:30:16.606Z,47.30
2023-03-24T01:33:22.141Z,45.90
2023-03-24T01:36:26.999Z,44.03
2023-03-24T01:39:32.681Z,45.90
2023-03-24T01:42:37.692Z,45.07
2023-03-24T01:45:42.869Z,43.30
2023-03-24T01:48:48.252Z,46.27
2023-03-24T01:51:53.412Z,44.93
2023-03-24T01:54:58.677Z,42.90
2023-03-24T01:58:03.873Z,43.13
2023-03-24T02:01:09.269Z,43.63
2023-03-24T02:04:14.434Z,43.93
2023-03-24T02:07:19.608Z,43.13
2023-03-24T02:10:24.861Z,48.27
2023-03-24T02:13:29.959Z,46.30
2023-03-24T02:16:34.983Z,50.97
2023-03-24T02:19:40.050Z,47.77
2023-03-24T02:22:45.316Z,47.63
2023-03-24T02:25:51.416Z,48.33
2023-03-24T02:28:56.694Z,43.80
2023-03-24T02:32:01.632Z,43.00
2023-03-24T02:35:06.868Z,44.17
2023-03-24T02:38:12.359Z,42.73
2023-03-24T02:41:17.546Z,42.63
2023-03-24T02:44:22.883Z,47.07
2023-03-24T02:47:29.162Z,53.47
2023-03-24T02:50:34.074Z,50.27
2023-03-24T02:53:39.134Z,50.40
2023-03-24T02:56:44.170Z,52.30
2023-03-24T02:59:49.107Z,49.70
2023-03-24T03:02:55.001Z,48.23
2023-03-24T03:06:00.391Z,46.60
2023-03-24T03:09:05.897Z,46.27
2023-03-24T03:12:10.869Z,43.40
2023-03-24T03:15:15.582Z,41.27
2023-03-24T03:18:21.195Z,41.90
2023-03-24T03:21:26.090Z,41.17
2023-03-24T03:24:31.438Z,38.97
2023-03-24T03:27:38.929Z,38.33
2023-03-24T03:30:45.181Z,37.00
2023-03-24T03:33:50.623Z,37.43
2023-03-24T03:36:56.075Z,40.00
2023-03-24T03:40:01.319Z,38.20
2023-03-24T03:43:06.468Z,39.93
2023-03-24T03:46:11.574Z,41.40
2023-03-24T03:49:16.629Z,42.23
2023-03-24T03:52:21.876Z,44.40
2023-03-24T03:55:27.041Z,47.70
2023-03-24T03:58:31.915Z,45.53
2023-03-24T04:01:37.633Z,49.37
2023-03-24T04:04:43.322Z,42.53
2023-03-24T04:07:49.032Z,48.27
2023-03-24T04:10:54.181Z,50.70
2023-03-24T04:13:59.421Z,49.80
2023-03-24T04:17:04.629Z,47.90
2023-03-24T04:20:12.290Z,46.07
2023-03-24T04:23:18.466Z,47.47
2023-03-24T04:26:26.750Z,46.20
2023-03-24T04:29:33.268Z,48.93
2023-03-24T04:32:41.408Z,53.33
2023-03-24T04:35:47.049Z,52.30
2023-03-24T04:38:54.918Z,50.20
2023-03-24T04:42:00.027Z,49.60
2023-03-24T04:45:05.034Z,47.80
2023-03-24T04:48:10.645Z,45.60
2023-03-24T04:51:16.201Z,41.67
2023-03-24T04:54:21.732Z,43.63
2023-03-24T04:57:26.755Z,41.13
2023-03-24T05:00:32.322Z,39.47
2023-03-24T05:03:38.155Z,37.13
2023-03-24T05:06:43.178Z,40.20
2023-03-24T05:09:48.124Z,36.43
2023-03-24T05:12:53.073Z,35.73
2023-03-24T05:15:58.474Z,34.13
2023-03-24T05:19:03.692Z,31.97
2023-03-24T05:22:08.781Z,30.43
2023-03-24T05:25:13.978Z,31.63
2023-03-24T05:28:19.225Z,29.97
2023-03-24T05:31:24.385Z,29.23
2023-03-24T05:34:29.614Z,28.13
2023-03-24T05:37:34.917Z,27.47
2023-03-24T05:40:40.022Z,27.07
2023-03-24T05:43:45.078Z,28.37
2023-03-24T05:46:50.251Z,27.00
2023-03-24T05:49:55.281Z,28.70
2023-03-24T05:53:00.248Z,25.37
2023-03-24T05:56:05.995Z,25.33
2023-03-24T05:59:12.115Z,23.37
2023-03-24T06:02:17.289Z,23.53
2023-03-24T06:05:22.489Z,23.60
2023-03-24T06:08:28.646Z,22.33
2023-03-24T06:11:33.853Z,21.50
2023-03-24T06:14:40.601Z,20.77
2023-03-24T06:17:46.289Z,21.17
2023-03-24T06:20:51.416Z,22.10
2023-03-24T06:23:57.418Z,21.53
2023-03-24T06:27:03.458Z,21.57
2023-03-24T06:30:08.697Z,22.23
2023-03-24T06:33:13.923Z,21.50
2023-03-24T06:36:18.975Z,20.73
2023-03-24T06:39:24.161Z,21.37
2023-03-24T06:42:29.098Z,22.93
2023-03-24T06:45:34.786Z,22.20
2023-03-24T06:48:39.807Z,21.73
2023-03-24T06:51:46.283Z,23.33
2023-03-24T06:54:51.708Z,22.50
2023-03-24T06:57:56.956Z,23.00
2023-03-24T07:01:01.982Z,22.27
2023-03-24T07:04:07.242Z,22.03
2023-03-24T07:07:41.393Z,20.93
2023-03-24T07:10:37.844Z,19.77
2023-03-24T07:13:43.249Z,19.70
2023-03-24T07:16:48.575Z,20.93
2023-03-24T07:19:53.833Z,19.53
2023-03-24T07:22:58.954Z,19.97
2023-03-24T07:26:03.810Z,20.00
2023-03-24T07:29:08.902Z,19.80
2023-03-24T07:32:14.028Z,19.90
2023-03-24T07:35:19.389Z,20.57
2023-03-24T07:38:24.813Z,19.80
2023-03-24T07:41:30.358Z,20.13
2023-03-24T07:44:35.560Z,21.43
2023-03-24T07:47:40.569Z,21.83
2023-03-24T07:50:45.826Z,20.57
2023-03-24T07:53:51.491Z,20.00
2023-03-24T07:56:56.832Z,19.80
2023-03-24T08:00:02.307Z,20.40
2023-03-24T08:03:09.683Z,20.23
2023-03-24T08:06:14.928Z,20.33
2023-03-24T08:09:20.200Z,21.33
2023-03-24T08:12:25.404Z,20.27
2023-03-24T08:15:30.382Z,18.70
2023-03-24T08:18:35.353Z,19.37
2023-03-24T08:21:40.842Z,18.37
2023-03-24T08:24:46.208Z,18.63
2023-03-24T08:27:51.764Z,18.37
2023-03-24T08:30:57.124Z,18.17
2023-03-24T08:34:02.327Z,17.63
2023-03-24T08:37:08.396Z,15.40
2023-03-24T08:40:17.242Z,16.37
2023-03-24T08:43:23.348Z,15.90
2023-03-24T08:46:28.247Z,14.40
2023-03-24T08:49:33.731Z,15.50
2023-03-24T08:52:38.999Z,15.40
2023-03-24T08:55:45.526Z,14.20
2023-03-24T08:58:51.374Z,13.93
2023-03-24T09:01:56.705Z,13.67
2023-03-24T09:05:01.899Z,15.10
2023-03-24T09:08:08.309Z,13.70
2023-03-24T09:11:13.438Z,14.30
2023-03-24T09:14:18.729Z,13.67
2023-03-24T09:17:23.689Z,13.70
2023-03-24T09:20:28.599Z,14.40
2023-03-24T09:23:33.739Z,15.50
2023-03-24T09:26:38.939Z,14.03
2023-03-24T09:29:44.207Z,14.33
2023-03-24T09:32:49.384Z,13.80
2023-03-24T09:35:55.655Z,13.27
2023-03-24T09:39:01.541Z,13.13
2023-03-24T09:42:06.922Z,12.57
2023-03-24T09:45:11.869Z,14.10
2023-03-24T09:48:17.037Z,14.40
2023-03-24T09:51:22.204Z,13.83
2023-03-24T09:54:27.380Z,14.73
2023-03-24T09:57:32.222Z,14.87
2023-03-24T10:00:01.403Z,14.90
2023-03-24T10:03:06.416Z,15.70
2023-03-24T10:06:11.460Z,13.30
2023-03-24T10:09:16.459Z,14.93
2023-03-24T10:12:21.389Z,13.77
2023-03-24T10:15:37.142Z,16.10
2023-03-24T10:18:43.097Z,15.60
2023-03-24T10:21:49.031Z,14.50
2023-03-24T10:24:54.141Z,14.70
2023-03-24T10:27:59.112Z,15.77
2023-03-24T10:30:30.165Z,14.47
2023-03-24T10:33:35.299Z,15.80
2023-03-24T10:36:40.353Z,13.83
2023-03-24T10:39:45.440Z,13.13
2023-03-24T10:43:06.818Z,13.47
2023-03-24T10:46:14.764Z,13.30
2023-03-24T10:49:20.406Z,13.53
2023-03-24T10:52:25.636Z,13.00
2023-03-24T10:55:31.378Z,12.70
2023-03-24T10:58:36.724Z,12.83
2023-03-24T11:01:42.149Z,13.90
2023-03-24T11:04:47.241Z,13.80
2023-03-24T11:07:53.761Z,13.97
2023-03-24T11:10:59.164Z,13.20
2023-03-24T11:14:04.365Z,14.00
2023-03-24T11:17:09.679Z,14.43
2023-03-24T11:20:14.600Z,13.70
2023-03-24T11:23:19.724Z,13.40
2023-03-24T11:26:26.371Z,14.13
2023-03-24T11:29:31.608Z,12.90
2023-03-24T11:32:36.827Z,13.70
2023-03-24T11:35:43.010Z,14.40
2023-03-24T11:38:49.119Z,14.43
2023-03-24T11:41:54.279Z,13.13
2023-03-24T11:44:59.590Z,12.67
2023-03-24T11:48:04.898Z,14.73
2023-03-24T11:51:12.010Z,15.20
2023-03-24T11:54:17.122Z,14.87
2023-03-24T11:57:22.331Z,14.97
2023-03-24T12:00:29.476Z,15.20
2023-03-24T12:03:34.964Z,12.97
2023-03-24T12:06:40.038Z,12.03
2023-03-24T12:09:45.161Z,11.43
2023-03-24T12:12:50.607Z,13.63
2023-03-24T12:15:55.771Z,16.70
2023-03-24T12:19:00.473Z,20.57
2023-03-24T12:22:05.855Z,24.10
2023-03-24T12:25:10.702Z,25.50
2023-03-24T12:28:15.936Z,26.50
2023-03-24T12:31:21.882Z,26.33
2023-03-24T12:34:27.186Z,26.63
2023-03-24T12:37:32.034Z,29.43
2023-03-24T12:40:36.866Z,31.63
2023-03-24T12:43:41.967Z,29.77
2023-03-24T12:46:48.874Z,27.47
2023-03-24T12:49:55.962Z,28.50
2023-03-24T12:56:09.471Z,26.40
2023-03-24T12:59:15.060Z,24.93
2023-03-24T13:02:20.372Z,27.87
2023-03-24T13:05:26.541Z,25.83
2023-03-24T13:08:32.242Z,24.73
2023-03-24T13:11:37.311Z,22.70
2023-03-24T13:14:42.630Z,22.33
2023-03-24T13:17:47.540Z,21.83
2023-03-24T13:20:52.717Z,21.93
2023-03-24T13:23:58.173Z,23.57
2023-03-24T13:27:03.386Z,25.53
2023-03-24T13:30:09.200Z,25.67
2023-03-24T13:33:14.282Z,24.10
2023-03-24T13:36:19.126Z,26.13
2023-03-24T13:39:24.224Z,25.97
2023-03-24T13:42:29.041Z,24.03
2023-03-24T13:45:34.427Z,26.43
2023-03-24T13:48:41.587Z,25.83
2023-03-24T13:51:46.722Z,26.37
2023-03-24T13:54:51.740Z,27.10
2023-03-24T13:57:57.098Z,28.47
2023-03-24T14:01:02.392Z,29.63
2023-03-24T14:04:07.761Z,34.97
2023-03-24T14:07:12.483Z,35.93
2023-03-24T14:10:19.131Z,35.77
2023-03-24T14:13:24.027Z,33.83
2023-03-24T14:16:29.290Z,37.00
2023-03-24T14:19:39.010Z,38.00
2023-03-24T14:22:44.188Z,35.90
2023-03-24T14:25:49.432Z,35.07
2023-03-24T14:28:54.268Z,36.23
2023-03-24T14:32:02.332Z,34.00
2023-03-24T14:35:12.035Z,34.83
2023-03-24T14:38:17.578Z,36.37
2023-03-24T14:41:24.177Z,36.57
2023-03-24T14:44:29.242Z,36.97
2023-03-24T14:47:34.522Z,34.20
2023-03-24T14:50:39.545Z,35.07
2023-03-24T14:53:44.601Z,33.57
2023-03-24T14:56:50.057Z,37.70
2023-03-24T14:59:54.972Z,37.20
2023-03-24T15:02:59.801Z,37.37
2023-03-24T15:06:04.994Z,37.10
2023-03-24T15:09:10.726Z,38.93
2023-03-24T15:12:16.026Z,41.13
2023-03-24T15:15:21.387Z,41.77
2023-03-24T15:18:26.618Z,42.30
2023-03-24T15:21:31.379Z,40.00
2023-03-24T15:24:36.316Z,42.90
2023-03-24T15:27:41.509Z,40.03
2023-03-24T15:30:46.940Z,41.50
2023-03-24T15:33:52.859Z,41.47
2023-03-24T15:36:58.457Z,41.93
2023-03-24T15:40:16.720Z,37.80
2023-03-24T15:43:21.830Z,36.43
2023-03-24T15:46:27.124Z,36.40
2023-03-24T15:49:31.896Z,37.30
2023-03-24T15:52:37.629Z,37.23
2023-03-24T15:55:42.881Z,35.53
2023-03-24T15:58:47.844Z,33.70
2023-03-24T16:01:53.025Z,32.83
2023-03-24T16:05:10.008Z,35.37
2023-03-24T16:08:17.261Z,30.10
2023-03-24T16:11:22.300Z,32.60
2023-03-24T16:14:27.158Z,32.37
2023-03-24T16:17:32.249Z,30.13
2023-03-24T16:20:37.129Z,30.33
2023-03-24T16:23:43.539Z,30.87
2023-03-24T16:26:50.020Z,30.83
2023-03-24T16:29:55.828Z,28.33
2023-03-24T16:33:01.011Z,27.13
2023-03-24T16:36:05.903Z,27.43
2023-03-24T16:39:10.705Z,25.97
2023-03-24T16:42:15.838Z,26.23
2023-03-24T16:45:20.785Z,28.30
2023-03-24T16:48:26.057Z,26.80
2023-03-24T16:51:31.162Z,27.10
2023-03-24T16:54:36.603Z,26.87
2023-03-24T16:57:41.762Z,25.70
2023-03-24T17:00:49.066Z,25.07
2023-03-24T17:03:54.516Z,24.33
2023-03-24T17:06:59.843Z,24.17
2023-03-24T17:10:05.017Z,23.23
2023-03-24T17:13:09.888Z,20.97
2023-03-24T17:16:15.510Z,22.17
2023-03-24T17:19:20.939Z,22.20
2023-03-24T17:22:26.581Z,20.63
2023-03-24T17:25:31.753Z,21.27
2023-03-24T17:28:36.601Z,21.27
2023-03-24T17:31:42.943Z,19.80
2023-03-24T17:34:48.064Z,21.03
2023-03-24T17:37:53.785Z,19.40
2023-03-24T17:40:58.998Z,19.57
2023-03-24T17:44:03.990Z,21.70
2023-03-24T17:47:09.016Z,20.13
2023-03-24T17:50:14.048Z,19.87
2023-03-24T17:53:25.841Z,19.67
2023-03-24T17:56:31.165Z,19.33
2023-03-24T17:59:37.224Z,19.13
2023-03-24T18:02:42.444Z,20.17
2023-03-24T18:05:47.668Z,20.00
2023-03-24T18:08:47.938Z,18.47
2023-03-24T18:11:16.338Z,17.13
2023-03-24T18:14:21.962Z,18.47
2023-03-24T18:17:27.137Z,16.03
2023-03-24T18:20:32.849Z,14.30
2023-03-24T18:23:38.058Z,17.70
2023-03-24T18:26:42.936Z,15.63
2023-03-24T18:29:47.877Z,14.70
2023-03-24T18:32:53.235Z,14.27
2023-03-24T18:35:58.587Z,14.40
2023-03-24T18:39:04.164Z,14.47
2023-03-24T18:42:09.474Z,14.70
2023-03-24T18:45:18.356Z,14.87
2023-03-24T18:48:23.908Z,13.83
2023-03-24T18:51:29.023Z,14.20
2023-03-24T18:54:34.135Z,13.67
2023-03-24T18:57:40.309Z,13.97
2023-03-24T19:00:45.325Z,14.03
2023-03-24T19:03:50.571Z,13.70
2023-03-24T19:06:56.794Z,14.20
2023-03-24T19:10:02.387Z,13.67
2023-03-24T19:13:07.330Z,14.07
2023-03-24T19:16:12.677Z,13.83
2023-03-24T19:19:18.449Z,14.67
2023-03-24T19:22:23.490Z,14.00
2023-03-24T19:25:28.603Z,13.77
2023-03-24T19:28:35.124Z,13.87
2023-03-24T19:31:41.426Z,13.50
2023-03-24T19:34:47.116Z,12.97
2023-03-24T19:37:51.964Z,12.23
2023-03-24T19:40:57.176Z,13.00
2023-03-24T19:44:02.156Z,10.67
2023-03-24T19:47:07.838Z,9.53
2023-03-24T19:50:13.073Z,11.10
2023-03-24T19:53:17.994Z,10.90
2023-03-24T19:56:23.203Z,10.67
2023-03-24T19:59:28.491Z,12.00
2023-03-24T20:02:33.874Z,12.63
2023-03-24T20:05:38.600Z,12.07
2023-03-24T20:08:43.695Z,11.93
2023-03-24T20:11:48.935Z,12.13
2023-03-24T20:14:54.226Z,12.30
2023-03-24T20:17:59.650Z,12.67
2023-03-24T20:21:06.377Z,14.63
2023-03-24T20:24:11.902Z,15.20
2023-03-24T20:27:17.050Z,16.40
2023-03-24T20:30:22.370Z,17.10
2023-03-24T20:33:28.762Z,15.90
2023-03-24T20:36:33.775Z,16.03
2023-03-24T20:39:40.338Z,16.13
2023-03-24T20:42:46.052Z,17.23
2023-03-24T20:45:51.410Z,17.77
2023-03-24T20:48:56.946Z,19.10
2023-03-24T20:52:02.104Z,18.10
2023-03-24T20:55:08.813Z,19.03
2023-03-24T20:58:14.207Z,18.27
2023-03-24T21:01:22.126Z,19.63
2023-03-24T21:04:27.380Z,19.70
2023-03-24T21:07:32.436Z,22.53
2023-03-24T21:10:38.124Z,22.13
2023-03-24T21:13:43.863Z,22.83
2023-03-24T21:16:49.262Z,22.37
2023-03-24T21:19:54.667Z,20.17
2023-03-24T21:23:03.498Z,23.60
2023-03-24T21:26:08.853Z,22.60
2023-03-24T21:29:14.702Z,21.87
2023-03-24T21:32:22.106Z,20.83
2023-03-24T21:35:28.030Z,19.77
2023-03-24T21:38:33.143Z,19.80
2023-03-24T21:41:38.859Z,19.37
2023-03-24T21:44:44.726Z,19.33
2023-03-24T21:47:49.688Z,20.87
2023-03-24T21:50:54.965Z,19.17
2023-03-24T21:54:03.333Z,19.00
2023-03-24T21:57:09.882Z,18.93
2023-03-24T22:00:15.038Z,19.93
2023-03-24T22:03:21.799Z,20.10
2023-03-24T22:06:29.436Z,19.40
2023-03-24T22:09:35.561Z,21.17
2023-03-24T22:12:40.552Z,21.50
2023-03-24T22:15:45.564Z,21.57
2023-03-24T22:19:14.825Z,20.40
2023-03-24T22:22:20.040Z,21.90
2023-03-24T22:25:25.344Z,22.30
2023-03-24T22:28:30.710Z,24.63
2023-03-24T22:31:36.443Z,26.80
2023-03-24T22:34:43.624Z,25.30
2023-03-24T22:37:48.911Z,26.10
2023-03-24T22:40:53.653Z,24.07
2023-03-24T22:43:58.762Z,23.67
2023-03-24T22:47:03.896Z,23.43
2023-03-24T22:50:09.577Z,23.83
2023-03-24T22:53:14.615Z,21.33
2023-03-24T22:56:19.558Z,21.10
2023-03-24T22:59:25.161Z,18.53
2023-03-24T23:02:30.834Z,17.70
2023-03-24T23:05:35.755Z,17.53
2023-03-24T23:08:40.632Z,16.33
2023-03-24T23:11:45.776Z,15.83
2023-03-24T23:14:54.325Z,15.20
2023-03-24T23:17:59.699Z,15.60
2023-03-24T23:21:06.931Z,14.80
2023-03-24T23:24:12.272Z,14.87
2023-03-24T23:27:17.728Z,13.53
2023-03-24T23:30:22.715Z,12.60
2023-03-24T23:33:27.764Z,13.43
2023-03-24T23:36:34.232Z,14.10
2023-03-24T23:39:39.457Z,14.43
2023-03-24T23:42:44.682Z,14.00
2023-03-24T23:45:50.639Z,13.57
2023-03-24T23:48:56.352Z,12.73
2023-03-24T23:52:01.309Z,12.00
2023-03-24T23:55:06.516Z,12.10
2023-03-24T23:58:11.985Z,10.53
